Time;durP1;ratioP1;P1;durP2;ratioP2;P2;SDS_P1;SDS_P2;PMS_P1;PMS_P2;Temp;Humidity;BMP_temperature;BMP_pressure;BME280_temperature;BME280_humidity;BME280_pressure;Samples;Min_cycle;Max_cycle;Signal;HPM_P1;HPM_P2
2024/04/09 00:00:15;;;;;;;11.27;3.05;;;;;;;;;;5349143;26;20459;-84
2024/04/09 00:02:46;;;;;;;13.90;3.40;;;;;;;;;;5348316;26;20008;-84
2024/04/09 00:05:14;;;;;;;22.95;4.38;;;;;;;;;;5348412;26;20354;-84
2024/04/09 00:07:43;;;;;;;21.08;3.70;;;;;;;;;;5346876;26;20425;-83
2024/04/09 00:10:13;;;;;;;14.65;3.72;;;;;;;;;;5348769;26;20456;-83
2024/04/09 00:12:43;;;;;;;11.68;3.30;;;;;;;;;;5348286;26;20341;-84
2024/04/09 00:15:12;;;;;;;16.58;3.92;;;;;;;;;;5346785;26;20348;-83
2024/04/09 00:17:46;;;;;;;15.07;3.50;;;;;;;;;;5346773;26;20446;-84
2024/04/09 00:20:18;;;;;;;21.13;4.13;;;;;;;;;;5348269;26;20341;-84
2024/04/09 00:22:45;;;;;;;16.83;3.45;;;;;;;;;;5346987;26;20429;-83
2024/04/09 00:25:18;;;;;;;11.10;4.15;;;;;;;;;;5348258;26;20330;-84
2024/04/09 00:27:47;;;;;;;11.00;2.90;;;;;;;;;;5348337;26;20475;-83
2024/04/09 00:30:17;;;;;;;15.63;3.88;;;;;;;;;;5348038;26;20333;-83
2024/04/09 00:32:46;;;;;;;23.17;3.65;;;;;;;;;;5346871;26;20330;-84
2024/04/09 00:35:14;;;;;;;19.23;3.10;;;;;;;;;;5347859;26;20376;-84
2024/04/09 00:37:42;;;;;;;17.45;4.05;;;;;;;;;;5346651;26;20071;-84
2024/04/09 00:40:10;;;;;;;16.40;4.53;;;;;;;;;;5345513;26;20395;-84
2024/04/09 00:42:38;;;;;;;20.15;4.05;;;;;;;;;;5347925;26;20351;-84
2024/04/09 00:45:06;;;;;;;13.30;3.83;;;;;;;;;;5348007;26;20333;-84
2024/04/09 00:47:34;;;;;;;21.90;3.78;;;;;;;;;;5346270;26;20341;-84
2024/04/09 00:50:04;;;;;;;13.38;3.65;;;;;;;;;;5348069;26;20434;-84
2024/04/09 00:52:35;;;;;;;16.90;3.85;;;;;;;;;;5348019;26;20452;-84
2024/04/09 00:55:03;;;;;;;17.42;4.88;;;;;;;;;;5346391;26;20008;-84
2024/04/09 00:57:31;;;;;;;13.45;3.63;;;;;;;;;;5346362;26;20445;-84
2024/04/09 00:59:59;;;;;;;15.23;3.78;;;;;;;;;;5346420;26;20469;-83
2024/04/09 01:02:27;;;;;;;11.45;3.33;;;;;;;;;;5347489;26;20341;-83
2024/04/09 01:04:56;;;;;;;16.45;3.55;;;;;;;;;;5346195;26;20000;-83
2024/04/09 01:07:23;;;;;;;16.60;3.15;;;;;;;;;;5348003;26;20341;-83
2024/04/09 01:09:51;;;;;;;24.38;4.03;;;;;;;;;;5345909;26;20408;-83
2024/04/09 01:12:20;;;;;;;20.10;3.90;;;;;;;;;;5347313;26;20333;-83
2024/04/09 01:14:48;;;;;;;19.00;4.07;;;;;;;;;;5350647;26;20326;-84
2024/04/09 01:17:16;;;;;;;17.63;3.92;;;;;;;;;;5346060;26;20341;-84
2024/04/09 01:19:45;;;;;;;14.80;4.35;;;;;;;;;;5347552;26;20437;-83
2024/04/09 01:22:14;;;;;;;17.88;3.63;;;;;;;;;;5347402;26;20355;-84
2024/04/09 01:24:42;;;;;;;23.65;4.05;;;;;;;;;;5347322;26;20338;-84
2024/04/09 01:27:14;;;;;;;14.00;3.58;;;;;;;;;;5345781;26;20461;-83
2024/04/09 01:29:43;;;;;;;17.52;3.72;;;;;;;;;;5347310;26;20341;-84
2024/04/09 01:32:12;;;;;;;15.52;3.33;;;;;;;;;;5345639;26;20013;-84
2024/04/09 01:34:40;;;;;;;14.13;3.20;;;;;;;;;;5345535;26;20387;-84
2024/04/09 01:37:11;;;;;;;14.90;3.47;;;;;;;;;;5345544;26;20480;-84
2024/04/09 01:39:40;;;;;;;20.77;3.75;;;;;;;;;;5347291;26;20330;-84
2024/04/09 01:42:09;;;;;;;13.02;3.60;;;;;;;;;;5346972;26;20345;-84
2024/04/09 01:44:37;;;;;;;14.23;3.83;;;;;;;;;;5339398;26;20334;-83
2024/04/09 01:47:05;;;;;;;17.92;3.83;;;;;;;;;;5311306;27;20337;-84
2024/04/09 01:49:33;;;;;;;23.85;4.55;;;;;;;;;;5312596;26;20442;-84
2024/04/09 01:52:01;;;;;;;17.90;3.85;;;;;;;;;;5314952;26;20377;-84
2024/04/09 01:54:29;;;;;;;13.88;3.17;;;;;;;;;;5315692;27;20508;-84
2024/04/09 01:56:57;;;;;;;21.92;3.97;;;;;;;;;;5314301;27;20457;-84
2024/04/09 01:59:26;;;;;;;16.27;4.05;;;;;;;;;;5315623;26;20362;-84
2024/04/09 02:01:54;;;;;;;24.42;4.32;;;;;;;;;;5315591;26;20457;-83
2024/04/09 02:04:22;;;;;;;18.45;3.78;;;;;;;;;;5314125;27;20342;-83
2024/04/09 02:06:50;;;;;;;18.52;4.18;;;;;;;;;;5315519;27;20415;-84
2024/04/09 02:09:18;;;;;;;17.92;4.13;;;;;;;;;;5315637;27;20437;-83
2024/04/09 02:11:48;;;;;;;15.52;3.28;;;;;;;;;;5314070;27;20476;-84
2024/04/09 02:14:16;;;;;;;14.68;3.95;;;;;;;;;;5315568;26;19998;-84
2024/04/09 02:16:45;;;;;;;14.23;3.95;;;;;;;;;;5313977;27;20503;-84
2024/04/09 02:19:13;;;;;;;16.40;3.90;;;;;;;;;;5314019;27;20488;-83
2024/04/09 02:21:41;;;;;;;27.10;4.03;;;;;;;;;;5315382;27;20330;-84
2024/04/09 02:24:09;;;;;;;12.50;3.88;;;;;;;;;;5315243;26;20337;-83
2024/04/09 02:26:37;;;;;;;19.10;3.80;;;;;;;;;;5313988;27;20446;-83
2024/04/09 02:29:05;;;;;;;17.83;4.03;;;;;;;;;;5314585;27;20473;-83
2024/04/09 02:31:33;;;;;;;17.88;3.78;;;;;;;;;;5316917;27;20389;-84
2024/04/09 02:34:01;;;;;;;15.93;4.13;;;;;;;;;;5315399;26;20331;-84
2024/04/09 02:36:29;;;;;;;12.85;3.28;;;;;;;;;;5313740;27;20473;-84
2024/04/09 02:38:57;;;;;;;18.15;3.60;;;;;;;;;;5315526;27;20438;-84
2024/04/09 02:41:27;;;;;;;18.25;4.30;;;;;;;;;;5315126;27;20465;-84
2024/04/09 02:43:55;;;;;;;16.67;4.15;;;;;;;;;;5325833;26;20361;-83
2024/04/09 02:46:23;;;;;;;35.22;12.80;;;;;;;;;;5348123;26;20441;-83
2024/04/09 02:48:51;;;;;;;23.45;11.10;;;;;;;;;;5349824;26;20361;-84
2024/04/09 02:51:21;;;;;;;56.35;32.22;;;;;;;;;;5349509;26;20341;-84
2024/04/09 02:53:50;;;;;;;20.38;6.22;;;;;;;;;;5349474;26;20333;-84
2024/04/09 02:56:18;;;;;;;17.02;3.60;;;;;;;;;;5347991;26;20398;-83
2024/04/09 02:58:46;;;;;;;14.07;3.22;;;;;;;;;;5349653;26;20452;-84
2024/04/09 03:01:14;;;;;;;20.25;4.05;;;;;;;;;;5347976;26;20460;-83
2024/04/09 03:03:44;;;;;;;21.90;4.68;;;;;;;;;;5347043;26;20330;-84
2024/04/09 03:06:13;;;;;;;21.60;5.90;;;;;;;;;;5349390;26;20322;-84
2024/04/09 03:08:42;;;;;;;19.17;4.93;;;;;;;;;;5349214;26;20332;-84
2024/04/09 03:11:19;;;;;;;17.92;5.15;;;;;;;;;;5347721;26;20321;-84
2024/04/09 03:13:51;;;;;;;16.50;5.55;;;;;;;;;;5349352;26;20429;-84
2024/04/09 03:16:20;;;;;;;27.08;6.28;;;;;;;;;;5347585;26;20411;-84
2024/04/09 03:18:50;;;;;;;22.58;5.80;;;;;;;;;;5348018;26;20475;-84
2024/04/09 03:21:18;;;;;;;14.38;5.07;;;;;;;;;;5349120;26;20314;-84
2024/04/09 03:23:46;;;;;;;16.38;6.00;;;;;;;;;;5349626;26;20461;-83
2024/04/09 03:26:15;;;;;;;15.38;5.45;;;;;;;;;;5349404;26;20475;-84
2024/04/09 03:28:43;;;;;;;17.17;5.03;;;;;;;;;;5349290;26;20441;-83
2024/04/09 03:31:11;;;;;;;20.08;4.05;;;;;;;;;;5347699;26;20322;-84
2024/04/09 03:33:39;;;;;;;15.10;3.50;;;;;;;;;;5347646;26;20425;-84
2024/04/09 03:36:08;;;;;;;14.88;3.30;;;;;;;;;;5347359;26;20456;-83
2024/04/09 03:38:36;;;;;;;20.73;4.50;;;;;;;;;;5347639;26;20445;-84
2024/04/09 03:41:05;;;;;;;28.13;5.20;;;;;;;;;;5348187;26;20008;-84
2024/04/09 03:43:33;;;;;;;23.33;4.40;;;;;;;;;;5347584;26;20344;-84
2024/04/09 03:46:06;;;;;;;19.95;4.28;;;;;;;;;;5349162;26;20391;-84
2024/04/09 03:48:35;;;;;;;13.80;3.90;;;;;;;;;;5351949;26;20012;-85
2024/04/09 03:51:04;;;;;;;22.80;4.18;;;;;;;;;;5349298;26;20333;-84
2024/04/09 03:53:32;;;;;;;21.35;3.60;;;;;;;;;;5348787;26;20437;-84
2024/04/09 03:56:02;;;;;;;16.98;4.05;;;;;;;;;;5348661;26;20339;-84
2024/04/09 03:58:31;;;;;;;18.63;4.18;;;;;;;;;;5347993;26;20477;-84
2024/04/09 04:01:02;;;;;;;11.13;3.50;;;;;;;;;;5348715;26;20442;-84
2024/04/09 04:03:37;;;;;;;8.65;4.15;;;;;;;;;;5347611;26;20421;-84
2024/04/09 04:06:06;;;;;;;12.27;4.25;;;;;;;;;;5348631;26;20456;-84
2024/04/09 04:08:35;;;;;;;22.48;4.72;;;;;;;;;;5347256;26;20326;-84
2024/04/09 04:11:04;;;;;;;16.92;3.92;;;;;;;;;;5347353;26;20335;-84
2024/04/09 04:13:34;;;;;;;14.75;3.25;;;;;;;;;;5348220;26;20329;-84
2024/04/09 04:16:09;;;;;;;21.13;4.13;;;;;;;;;;5347649;26;20009;-84
2024/04/09 04:18:39;;;;;;;17.65;4.60;;;;;;;;;;5348582;26;20329;-84
2024/04/09 04:21:08;;;;;;;14.40;3.72;;;;;;;;;;5347324;26;20445;-84
2024/04/09 04:23:41;;;;;;;17.35;4.10;;;;;;;;;;5348864;26;20436;-84
2024/04/09 04:26:10;;;;;;;16.77;4.00;;;;;;;;;;5347040;26;20449;-84
2024/04/09 04:28:39;;;;;;;17.92;4.28;;;;;;;;;;5348352;26;20342;-83
2024/04/09 04:31:17;;;;;;;18.85;4.28;;;;;;;;;;5346777;26;20337;-84
2024/04/09 04:33:45;;;;;;;19.10;4.20;;;;;;;;;;5346575;26;20438;-84
2024/04/09 04:36:18;;;;;;;24.02;4.55;;;;;;;;;;5346912;26;20345;-84
2024/04/09 04:38:47;;;;;;;18.15;4.15;;;;;;;;;;5346901;26;20329;-84
2024/04/09 04:41:15;;;;;;;23.92;4.53;;;;;;;;;;5348115;26;20337;-84
2024/04/09 04:43:43;;;;;;;14.98;4.28;;;;;;;;;;5347877;26;20329;-84
2024/04/09 04:46:11;;;;;;;18.92;4.68;;;;;;;;;;5348131;26;20429;-84
2024/04/09 04:48:39;;;;;;;19.15;4.70;;;;;;;;;;5348386;26;20437;-84
2024/04/09 04:51:08;;;;;;;28.83;4.68;;;;;;;;;;5346739;26;20322;-84
2024/04/09 04:53:36;;;;;;;18.75;4.38;;;;;;;;;;5347891;26;20333;-84
2024/04/09 04:56:05;;;;;;;27.35;6.80;;;;;;;;;;5348014;26;20445;-84
2024/04/09 04:58:33;;;;;;;28.70;6.70;;;;;;;;;;5348129;26;20448;-83
2024/04/09 05:01:01;;;;;;;25.10;4.68;;;;;;;;;;5346377;26;20338;-84
2024/04/09 05:03:29;;;;;;;20.92;4.63;;;;;;;;;;5348966;26;20425;-84
2024/04/09 05:06:04;;;;;;;16.67;4.65;;;;;;;;;;5349544;26;20336;-85
2024/04/09 05:08:33;;;;;;;25.58;4.45;;;;;;;;;;5346621;26;20332;-84
2024/04/09 05:11:06;;;;;;;19.55;4.53;;;;;;;;;;5345920;26;20390;-85
2024/04/09 05:13:35;;;;;;;25.50;4.63;;;;;;;;;;5347277;26;20329;-84
2024/04/09 05:16:04;;;;;;;23.42;4.63;;;;;;;;;;5346266;26;20445;-84
2024/04/09 05:18:32;;;;;;;29.95;5.10;;;;;;;;;;5346009;26;20346;-85
2024/04/09 05:21:00;;;;;;;22.15;4.85;;;;;;;;;;5345687;26;20334;-85
2024/04/09 05:23:28;;;;;;;32.25;5.45;;;;;;;;;;5346149;26;20471;-84
2024/04/09 05:25:56;;;;;;;16.95;4.38;;;;;;;;;;5348953;26;20498;-85
2024/04/09 05:28:24;;;;;;;27.85;5.20;;;;;;;;;;5349493;26;20536;-84
2024/04/09 05:30:52;;;;;;;22.42;5.20;;;;;;;;;;5348921;26;20362;-85
2024/04/09 05:33:20;;;;;;;27.50;5.38;;;;;;;;;;5349171;26;20317;-85
2024/04/09 05:35:51;;;;;;;26.40;4.30;;;;;;;;;;5349221;26;20334;-84
2024/04/09 05:38:19;;;;;;;22.20;4.95;;;;;;;;;;5349703;26;20004;-85
2024/04/09 05:40:54;;;;;;;23.60;4.93;;;;;;;;;;5351333;26;20360;-84
2024/04/09 05:43:23;;;;;;;18.88;4.60;;;;;;;;;;5350338;26;20338;-85
2024/04/09 05:45:51;;;;;;;17.17;4.13;;;;;;;;;;5350423;26;20368;-85
2024/04/09 05:48:19;;;;;;;37.97;5.00;;;;;;;;;;5350233;26;20333;-85
2024/04/09 05:50:47;;;;;;;54.13;5.85;;;;;;;;;;5348780;26;20369;-85
2024/04/09 05:53:15;;;;;;;59.28;8.27;;;;;;;;;;5350404;26;20522;-84
2024/04/09 05:55:43;;;;;;;35.88;5.63;;;;;;;;;;5349124;26;20359;-85
2024/04/09 05:58:11;;;;;;;22.90;4.88;;;;;;;;;;5350728;26;20425;-85
2024/04/09 06:00:39;;;;;;;21.63;4.15;;;;;;;;;;5351369;26;20430;-84
2024/04/09 06:03:07;;;;;;;14.82;4.78;;;;;;;;;;5350254;26;20349;-85
2024/04/09 06:05:36;;;;;;;27.92;4.40;;;;;;;;;;5350510;26;20361;-85
2024/04/09 06:08:03;;;;;;;23.55;4.60;;;;;;;;;;5350367;26;20341;-84
2024/04/09 06:10:32;;;;;;;18.05;4.43;;;;;;;;;;5348679;26;20001;-84
2024/04/09 06:13:00;;;;;;;18.90;4.63;;;;;;;;;;5349965;26;20012;-85
2024/04/09 06:15:28;;;;;;;16.00;3.97;;;;;;;;;;5350677;26;20449;-85
2024/04/09 06:17:56;;;;;;;21.40;4.35;;;;;;;;;;5349476;26;20001;-84
2024/04/09 06:20:24;;;;;;;14.32;4.05;;;;;;;;;;5349301;26;20452;-85
2024/04/09 06:22:52;;;;;;;18.13;3.95;;;;;;;;;;5349344;26;20464;-85
2024/04/09 06:25:21;;;;;;;25.98;4.85;;;;;;;;;;5348772;26;20452;-85
2024/04/09 06:27:50;;;;;;;34.53;5.20;;;;;;;;;;5349655;26;20333;-85
2024/04/09 06:30:18;;;;;;;30.88;5.30;;;;;;;;;;5350296;26;20333;-84
2024/04/09 06:32:46;;;;;;;20.40;4.75;;;;;;;;;;5348684;26;20441;-85
2024/04/09 06:35:15;;;;;;;19.23;4.03;;;;;;;;;;5350920;26;20472;-85
2024/04/09 06:37:44;;;;;;;23.67;4.63;;;;;;;;;;5349492;26;20338;-85
2024/04/09 06:40:12;;;;;;;22.58;4.95;;;;;;;;;;5350227;26;20345;-85
2024/04/09 06:42:40;;;;;;;29.10;4.78;;;;;;;;;;5350015;26;20425;-85
2024/04/09 06:45:08;;;;;;;23.17;5.38;;;;;;;;;;5349870;26;20341;-85
2024/04/09 06:47:36;;;;;;;27.85;5.55;;;;;;;;;;5348356;26;20479;-85
2024/04/09 06:50:04;;;;;;;22.45;4.72;;;;;;;;;;5348293;26;20359;-85
2024/04/09 06:52:33;;;;;;;25.60;4.70;;;;;;;;;;5348557;26;20437;-85
2024/04/09 06:55:01;;;;;;;23.63;4.10;;;;;;;;;;5348171;26;20345;-86
2024/04/09 06:57:30;;;;;;;29.00;4.70;;;;;;;;;;5349795;26;19996;-85
2024/04/09 06:59:57;;;;;;;19.70;5.05;;;;;;;;;;5349859;26;20418;-85
2024/04/09 07:02:26;;;;;;;20.00;4.20;;;;;;;;;;5349641;26;20441;-85
2024/04/09 07:04:56;;;;;;;30.52;4.95;;;;;;;;;;5349999;26;20404;-85
2024/04/09 07:07:24;;;;;;;30.02;5.22;;;;;;;;;;5347900;26;20336;-85
2024/04/09 07:09:55;;;;;;;24.05;5.00;;;;;;;;;;5348159;26;20356;-86
2024/04/09 07:12:23;;;;;;;18.80;5.10;;;;;;;;;;5349526;26;20326;-86
2024/04/09 07:14:51;;;;;;;36.83;6.43;;;;;;;;;;5349541;26;20463;-85
2024/04/09 07:17:19;;;;;;;50.15;7.45;;;;;;;;;;5348030;26;20360;-85
2024/04/09 07:19:47;;;;;;;45.22;6.45;;;;;;;;;;5347944;26;20441;-85
2024/04/09 07:22:16;;;;;;;40.03;5.82;;;;;;;;;;5347948;26;20456;-85
2024/04/09 07:24:46;;;;;;;43.53;6.93;;;;;;;;;;5348065;26;20333;-86
2024/04/09 07:27:14;;;;;;;47.65;7.32;;;;;;;;;;5349287;26;20360;-85
2024/04/09 07:29:42;;;;;;;42.05;6.85;;;;;;;;;;5349277;26;20001;-85
2024/04/09 07:32:12;;;;;;;44.08;7.22;;;;;;;;;;5349429;26;20441;-86
2024/04/09 07:34:43;;;;;;;34.15;6.95;;;;;;;;;;5347979;26;20441;-86
2024/04/09 07:37:11;;;;;;;33.17;8.35;;;;;;;;;;5348564;26;20361;-86
2024/04/09 07:39:39;;;;;;;32.25;7.45;;;;;;;;;;5350709;26;20333;-86
2024/04/09 07:42:07;;;;;;;40.60;7.18;;;;;;;;;;5349336;26;20329;-86
2024/04/09 07:44:36;;;;;;;31.98;6.80;;;;;;;;;;5341611;26;20438;-86
2024/04/09 07:47:04;;;;;;;36.22;7.10;;;;;;;;;;5313373;27;20360;-84
2024/04/09 07:49:32;;;;;;;23.92;5.90;;;;;;;;;;5313046;27;20465;-83
2024/04/09 07:52:00;;;;;;;28.60;5.57;;;;;;;;;;5313202;27;20315;-83
2024/04/09 07:54:28;;;;;;;43.90;6.45;;;;;;;;;;5313124;27;20382;-84
2024/04/09 07:56:56;;;;;;;37.40;5.13;;;;;;;;;;5312762;27;20331;-84
2024/04/09 07:59:25;;;;;;;49.25;5.25;;;;;;;;;;5313078;27;20446;-84
2024/04/09 08:01:53;;;;;;;39.60;5.30;;;;;;;;;;5313008;27;20465;-84
2024/04/09 08:04:21;;;;;;;22.27;4.78;;;;;;;;;;5314440;26;20341;-84
2024/04/09 08:06:50;;;;;;;21.85;4.20;;;;;;;;;;5314310;27;20446;-85
2024/04/09 08:09:18;;;;;;;30.13;4.70;;;;;;;;;;5314297;26;20006;-84
2024/04/09 08:11:49;;;;;;;21.80;4.28;;;;;;;;;;5314100;27;20469;-84
2024/04/09 08:14:17;;;;;;;25.50;4.55;;;;;;;;;;5314067;26;20342;-84
2024/04/09 08:16:45;;;;;;;24.90;4.00;;;;;;;;;;5314520;26;20341;-85
2024/04/09 08:19:13;;;;;;;17.23;3.95;;;;;;;;;;5313112;27;20378;-86
2024/04/09 08:21:41;;;;;;;24.33;3.90;;;;;;;;;;5314102;27;20446;-85
2024/04/09 08:24:10;;;;;;;30.52;4.30;;;;;;;;;;5312763;27;20450;-86
2024/04/09 08:26:40;;;;;;;23.85;4.55;;;;;;;;;;5312222;27;20362;-84
2024/04/09 08:29:14;;;;;;;25.08;3.83;;;;;;;;;;5314116;27;20446;-84
2024/04/09 08:31:44;;;;;;;25.67;4.25;;;;;;;;;;5314122;27;20330;-84
2024/04/09 08:34:12;;;;;;;19.42;4.13;;;;;;;;;;5313921;26;20350;-84
2024/04/09 08:36:43;;;;;;;32.03;4.55;;;;;;;;;;5313838;27;20458;-83
2024/04/09 08:39:12;;;;;;;19.83;4.57;;;;;;;;;;5311996;27;20357;-85
2024/04/09 08:41:40;;;;;;;26.20;4.68;;;;;;;;;;5314107;26;19998;-85
2024/04/09 08:44:08;;;;;;;17.42;4.25;;;;;;;;;;5327296;26;20329;-85
2024/04/09 08:46:36;;;;;;;20.80;4.15;;;;;;;;;;5346783;26;20464;-86
2024/04/09 08:49:05;;;;;;;27.33;4.60;;;;;;;;;;5346666;26;20448;-85
2024/04/09 08:51:34;;;;;;;29.25;4.85;;;;;;;;;;5346494;26;20333;-85
2024/04/09 08:54:04;;;;;;;38.60;5.18;;;;;;;;;;5348526;26;20506;-84
2024/04/09 08:56:32;;;;;;;23.05;4.28;;;;;;;;;;5355880;26;20336;-84
2024/04/09 08:59:04;;;;;;;24.38;3.88;;;;;;;;;;5348246;26;20348;-85
2024/04/09 09:01:32;;;;;;;23.98;4.15;;;;;;;;;;5345814;26;20329;-85
2024/04/09 09:04:00;;;;;;;25.55;4.70;;;;;;;;;;5346662;26;20437;-84
2024/04/09 09:06:30;;;;;;;25.17;4.95;;;;;;;;;;5346357;26;20452;-84
2024/04/09 09:08:58;;;;;;;26.65;4.32;;;;;;;;;;5347958;26;20460;-86
2024/04/09 09:11:28;;;;;;;30.00;4.20;;;;;;;;;;5317788;26;20016;-86
2024/04/09 09:14:04;;;;;;;57.50;6.38;;;;;;;;;;5346982;26;20354;-85
2024/04/09 09:16:33;;;;;;;33.80;5.70;;;;;;;;;;5346257;26;20355;-86
2024/04/09 09:19:05;;;;;;;31.83;4.95;;;;;;;;;;5346282;26;20449;-85
2024/04/09 09:21:33;;;;;;;25.60;4.03;;;;;;;;;;5346396;26;20330;-86
2024/04/09 09:24:01;;;;;;;29.25;4.80;;;;;;;;;;5348517;26;20333;-85
2024/04/09 09:26:30;;;;;;;25.73;4.25;;;;;;;;;;5346280;26;20329;-82
2024/04/09 09:29:02;;;;;;;27.88;4.47;;;;;;;;;;5346128;26;20484;-86
2024/04/09 09:31:32;;;;;;;32.75;5.03;;;;;;;;;;5345951;26;20364;-86
2024/04/09 09:34:02;;;;;;;40.35;4.90;;;;;;;;;;5347755;26;20078;-84
2024/04/09 09:36:31;;;;;;;22.95;4.00;;;;;;;;;;5345891;26;20444;-84
2024/04/09 09:39:00;;;;;;;35.05;4.90;;;;;;;;;;5347545;26;20437;-86
2024/04/09 09:41:31;;;;;;;33.50;4.85;;;;;;;;;;5346003;26;20481;-85
2024/04/09 09:43:59;;;;;;;27.00;4.65;;;;;;;;;;5347294;26;20494;-85
2024/04/09 09:46:31;;;;;;;32.00;5.45;;;;;;;;;;5346138;26;20484;-84
2024/04/09 09:49:00;;;;;;;30.02;4.80;;;;;;;;;;5347508;26;20011;-84
2024/04/09 09:51:29;;;;;;;23.55;4.47;;;;;;;;;;5346165;26;20439;-84
2024/04/09 09:53:57;;;;;;;26.00;5.05;;;;;;;;;;5347535;26;20369;-87
2024/04/09 09:56:28;;;;;;;26.92;4.80;;;;;;;;;;5347094;26;20433;-85
2024/04/09 09:58:57;;;;;;;33.53;5.10;;;;;;;;;;5345736;26;20349;-85
2024/04/09 10:01:25;;;;;;;31.30;4.72;;;;;;;;;;5347653;26;20476;-85
2024/04/09 10:03:54;;;;;;;30.10;5.50;;;;;;;;;;5345932;26;20322;-85
2024/04/09 10:06:27;;;;;;;34.63;4.70;;;;;;;;;;5347680;26;20001;-84
2024/04/09 10:08:56;;;;;;;25.08;4.80;;;;;;;;;;5346291;26;20329;-85
2024/04/09 10:11:24;;;;;;;21.52;4.03;;;;;;;;;;5345491;26;20329;-85
2024/04/09 10:13:52;;;;;;;23.05;4.70;;;;;;;;;;5354469;26;20369;-85
2024/04/09 10:16:23;;;;;;;22.25;4.82;;;;;;;;;;5350239;26;20453;-85
2024/04/09 10:18:51;;;;;;;25.98;4.25;;;;;;;;;;5348729;26;20470;-87
2024/04/09 10:21:30;;;;;;;33.72;4.78;;;;;;;;;;5350485;26;20326;-84
2024/04/09 10:23:59;;;;;;;25.27;4.32;;;;;;;;;;5348983;26;20441;-86
2024/04/09 10:26:27;;;;;;;28.85;4.10;;;;;;;;;;5350027;26;20421;-85
2024/04/09 10:29:02;;;;;;;24.25;4.45;;;;;;;;;;5348551;26;20361;-84
2024/04/09 10:31:33;;;;;;;25.05;4.63;;;;;;;;;;5347998;26;20351;-84
2024/04/09 10:34:02;;;;;;;19.58;4.28;;;;;;;;;;5348624;26;19997;-84
2024/04/09 10:36:32;;;;;;;16.70;3.83;;;;;;;;;;5350150;26;20461;-86
2024/04/09 10:39:00;;;;;;;17.33;3.75;;;;;;;;;;5350481;26;20432;-85
2024/04/09 10:41:28;;;;;;;21.27;4.47;;;;;;;;;;5349412;26;20344;-86
2024/04/09 10:43:55;;;;;;;25.23;4.45;;;;;;;;;;5349855;26;20329;-84
2024/04/09 10:46:23;;;;;;;24.20;4.28;;;;;;;;;;5348780;26;20337;-88
2024/04/09 10:48:52;;;;;;;33.35;4.40;;;;;;;;;;5350580;26;20452;-84
2024/04/09 10:51:21;;;;;;;28.85;5.75;;;;;;;;;;5348486;26;20437;-84
2024/04/09 10:53:50;;;;;;;32.58;4.82;;;;;;;;;;5349901;26;20407;-86
2024/04/09 10:56:18;;;;;;;23.23;4.03;;;;;;;;;;5349592;26;20012;-85
2024/04/09 10:58:46;;;;;;;28.30;5.07;;;;;;;;;;5348006;26;20334;-84
2024/04/09 11:01:15;;;;;;;31.15;4.22;;;;;;;;;;5348465;26;20445;-84
2024/04/09 11:03:44;;;;;;;21.20;4.20;;;;;;;;;;5348306;26;20429;-85
2024/04/09 11:06:14;;;;;;;22.67;4.53;;;;;;;;;;5348757;26;20464;-88
2024/04/09 11:08:42;;;;;;;23.15;3.65;;;;;;;;;;5349912;26;20453;-83
2024/04/09 11:11:12;;;;;;;24.13;4.00;;;;;;;;;;5349510;26;20417;-86
2024/04/09 11:13:41;;;;;;;25.40;4.95;;;;;;;;;;5348235;26;20040;-85
2024/04/09 11:16:18;;;;;;;31.73;4.32;;;;;;;;;;5349645;26;20012;-88
2024/04/09 11:19:16;;;;;;;23.33;4.15;;;;;;;;;;5348532;26;19993;-85
2024/04/09 11:21:44;;;;;;;22.95;4.18;;;;;;;;;;5305368;26;20337;-85
2024/04/09 11:24:12;;;;;;;18.52;3.60;;;;;;;;;;5347554;26;20441;-84
2024/04/09 11:26:44;;;;;;;19.70;3.95;;;;;;;;;;5350151;26;20321;-86
2024/04/09 11:29:24;;;;;;;21.67;3.65;;;;;;;;;;5352629;26;19993;-87
2024/04/09 11:31:52;;;;;;;24.80;3.83;;;;;;;;;;5357022;26;20321;-88
2024/04/09 11:34:23;;;;;;;23.25;4.10;;;;;;;;;;5349643;26;20333;-83
2024/04/09 11:36:52;;;;;;;22.58;3.80;;;;;;;;;;5348145;26;20437;-87
2024/04/09 11:39:20;;;;;;;23.58;3.97;;;;;;;;;;5349497;26;20075;-85
2024/04/09 11:41:52;;;;;;;18.77;3.35;;;;;;;;;;5347595;26;20345;-83
2024/04/09 11:44:24;;;;;;;25.30;3.72;;;;;;;;;;5349516;26;20001;-86
2024/04/09 11:46:51;;;;;;;20.20;3.10;;;;;;;;;;5349348;26;20437;-85
2024/04/09 11:49:20;;;;;;;16.90;3.67;;;;;;;;;;5349128;26;20341;-85
2024/04/09 11:51:49;;;;;;;18.70;3.10;;;;;;;;;;5349280;26;20468;-86
2024/04/09 11:54:17;;;;;;;14.68;2.92;;;;;;;;;;5348733;26;20334;-84
2024/04/09 11:56:45;;;;;;;14.05;2.95;;;;;;;;;;5349112;26;20436;-87
2024/04/09 11:59:13;;;;;;;16.88;3.55;;;;;;;;;;5347427;26;20340;-86
2024/04/09 12:01:41;;;;;;;18.65;3.13;;;;;;;;;;5347649;26;20425;-85
2024/04/09 12:04:09;;;;;;;19.90;3.17;;;;;;;;;;5347295;26;20345;-84
2024/04/09 12:06:38;;;;;;;17.40;2.90;;;;;;;;;;5349651;26;20345;-84
2024/04/09 12:09:07;;;;;;;15.85;2.92;;;;;;;;;;5348630;26;20334;-85
2024/04/09 12:11:35;;;;;;;14.85;3.03;;;;;;;;;;5349294;26;20318;-86
2024/04/09 12:14:03;;;;;;;19.05;3.58;;;;;;;;;;5349116;26;20476;-87
2024/04/09 12:16:32;;;;;;;15.63;3.15;;;;;;;;;;5347896;26;20414;-88
2024/04/09 12:19:00;;;;;;;19.70;3.33;;;;;;;;;;5347683;26;20445;-85
2024/04/09 12:21:28;;;;;;;19.27;3.10;;;;;;;;;;5348504;26;20039;-84
2024/04/09 12:23:56;;;;;;;17.63;3.38;;;;;;;;;;5347028;26;20421;-85
2024/04/09 12:26:24;;;;;;;18.20;3.22;;;;;;;;;;5348809;26;20009;-87
2024/04/09 12:28:57;;;;;;;19.30;4.00;;;;;;;;;;5347054;26;20361;-87
2024/04/09 12:31:25;;;;;;;19.08;3.00;;;;;;;;;;5349287;26;20352;-85
2024/04/09 12:33:54;;;;;;;11.75;3.15;;;;;;;;;;5348847;26;20340;-88
2024/04/09 12:36:22;;;;;;;28.30;3.42;;;;;;;;;;5347409;26;20448;-89
2024/04/09 12:38:50;;;;;;;13.77;2.60;;;;;;;;;;5347024;26;20329;-87
2024/04/09 12:41:18;;;;;;;13.50;2.53;;;;;;;;;;5348625;26;20314;-86
2024/04/09 12:43:50;;;;;;;11.80;2.95;;;;;;;;;;5347340;26;20412;-85
2024/04/09 12:46:18;;;;;;;29.25;3.78;;;;;;;;;;5354623;26;20001;-85
2024/04/09 12:48:46;;;;;;;10.07;2.03;;;;;;;;;;5352681;26;20396;-84
2024/04/09 12:51:34;;;;;;;13.43;2.85;;;;;;;;;;5347508;26;20008;-87
2024/04/09 12:54:02;;;;;;;17.20;2.50;;;;;;;;;;5348654;26;19997;-85
2024/04/09 12:56:30;;;;;;;13.00;2.67;;;;;;;;;;5346975;26;20352;-85
2024/04/09 12:58:58;;;;;;;16.17;2.60;;;;;;;;;;5348662;26;20465;-87
2024/04/09 13:01:26;;;;;;;30.60;2.75;;;;;;;;;;5348716;26;20329;-87
2024/04/09 13:03:54;;;;;;;10.68;2.05;;;;;;;;;;5348286;26;20456;-84
2024/04/09 13:06:23;;;;;;;11.02;1.70;;;;;;;;;;5348189;26;20429;-87
2024/04/09 13:08:52;;;;;;;14.00;1.80;;;;;;;;;;5346841;26;20337;-86
2024/04/09 13:11:21;;;;;;;53.53;3.17;;;;;;;;;;5348539;26;20321;-84
2024/04/09 13:13:49;;;;;;;5.40;1.65;;;;;;;;;;5346862;26;20448;-88
2024/04/09 13:16:17;;;;;;;13.27;1.50;;;;;;;;;;5346928;26;20329;-85
2024/04/09 13:18:47;;;;;;;16.55;1.23;;;;;;;;;;5348067;26;20322;-86
2024/04/09 13:21:15;;;;;;;8.65;1.10;;;;;;;;;;5346640;26;20337;-85
2024/04/09 13:23:43;;;;;;;8.88;1.38;;;;;;;;;;5348410;26;20362;-85
2024/04/09 13:26:11;;;;;;;9.40;1.27;;;;;;;;;;5348838;26;20329;-85
2024/04/09 13:28:39;;;;;;;5.75;0.90;;;;;;;;;;5347713;26;20037;-86
2024/04/09 13:31:07;;;;;;;33.67;2.70;;;;;;;;;;5346463;26;20350;-86
2024/04/09 13:33:36;;;;;;;13.63;1.50;;;;;;;;;;5347952;26;20448;-89
2024/04/09 13:36:04;;;;;;;8.25;1.27;;;;;;;;;;5346281;26;20334;-84
2024/04/09 13:38:32;;;;;;;8.45;0.98;;;;;;;;;;5347575;26;20512;-85
2024/04/09 13:41:00;;;;;;;7.88;0.90;;;;;;;;;;5347850;26;20347;-88
2024/04/09 13:43:30;;;;;;;18.88;1.30;;;;;;;;;;5346179;26;20353;-86
2024/04/09 13:45:58;;;;;;;15.38;1.10;;;;;;;;;;5346517;26;20404;-86
2024/04/09 13:48:26;;;;;;;11.77;1.55;;;;;;;;;;5351521;26;20340;-87
2024/04/09 13:50:54;;;;;;;7.72;0.60;;;;;;;;;;5349824;26;19997;-85
2024/04/09 13:53:23;;;;;;;4.20;0.80;;;;;;;;;;5350936;26;20336;-86
2024/04/09 13:55:52;;;;;;;6.07;1.05;;;;;;;;;;5350940;26;20338;-85
2024/04/09 13:58:20;;;;;;;21.83;1.67;;;;;;;;;;5350948;26;20453;-85
2024/04/09 14:00:48;;;;;;;18.70;1.45;;;;;;;;;;5350176;26;20329;-84
2024/04/09 14:03:17;;;;;;;5.65;0.55;;;;;;;;;;5351803;26;20447;-84
2024/04/09 14:05:47;;;;;;;13.15;1.42;;;;;;;;;;5357563;26;20331;-83
2024/04/09 14:08:16;;;;;;;6.15;0.93;;;;;;;;;;5351780;26;20326;-87
2024/04/09 14:10:44;;;;;;;5.05;0.73;;;;;;;;;;5350853;26;20322;-86
2024/04/09 14:13:12;;;;;;;10.52;1.17;;;;;;;;;;5351110;26;20344;-86
2024/04/09 14:15:40;;;;;;;13.13;1.27;;;;;;;;;;5349672;26;20445;-91
2024/04/09 14:18:08;;;;;;;3.03;0.50;;;;;;;;;;5349550;26;20314;-86
2024/04/09 14:20:37;;;;;;;3.55;0.50;;;;;;;;;;5348849;26;20448;-85
2024/04/09 14:23:05;;;;;;;4.53;0.55;;;;;;;;;;5349007;26;20332;-86
2024/04/09 14:25:33;;;;;;;8.13;1.08;;;;;;;;;;5348841;26;20333;-85
2024/04/09 14:28:01;;;;;;;2.55;0.40;;;;;;;;;;5350857;26;20364;-86
2024/04/09 14:30:29;;;;;;;9.43;0.70;;;;;;;;;;5349140;26;20379;-88
2024/04/09 14:32:57;;;;;;;0.88;0.70;;;;;;;;;;5348902;26;20337;-84
2024/04/09 14:35:25;;;;;;;1.67;0.40;;;;;;;;;;5348900;26;20472;-85
2024/04/09 14:37:53;;;;;;;1.80;0.38;;;;;;;;;;5349197;26;20449;-86
2024/04/09 14:40:21;;;;;;;3.03;0.40;;;;;;;;;;5348950;26;20072;-85